Map

Track Data

SID SEASON NUMBER BASIN SUBBASIN NAME ISO_TIME NATURE LAT LON WMO_WIND WMO_PRES WMO_AGENCY TRACK_TYPE DIST2LAND LANDFALL IFLAG USA_AGENCY USA_ATCF_ID USA_LAT USA_LON USA_RECORD USA_STATUS USA_WIND USA_PRES USA_SSHS USA_R34_NE USA_R34_SE USA_R34_SW USA_R34_NW USA_R50_NE USA_R50_SE USA_R50_SW USA_R50_NW USA_R64_NE USA_R64_SE USA_R64_SW USA_R64_NW USA_POCI USA_ROCI USA_RMW USA_EYE TOKYO_LAT TOKYO_LON TOKYO_GRADE TOKYO_WIND TOKYO_PRES TOKYO_R50_DIR TOKYO_R50_LONG TOKYO_R50_SHORT TOKYO_R30_DIR TOKYO_R30_LONG TOKYO_R30_SHORT TOKYO_LAND CMA_LAT CMA_LON CMA_CAT CMA_WIND CMA_PRES HKO_LAT HKO_LON HKO_CAT HKO_WIND HKO_PRES NEWDELHI_LAT NEWDELHI_LON NEWDELHI_GRADE NEWDELHI_WIND NEWDELHI_PRES NEWDELHI_CI NEWDELHI_DP NEWDELHI_POCI REUNION_LAT REUNION_LON REUNION_TYPE REUNION_WIND REUNION_PRES REUNION_TNUM REUNION_CI REUNION_RMW REUNION_R34_NE REUNION_R34_SE REUNION_R34_SW REUNION_R34_NW REUNION_R50_NE REUNION_R50_SE REUNION_R50_SW REUNION_R50_NW REUNION_R64_NE REUNION_R64_SE REUNION_R64_SW REUNION_R64_NW BOM_LAT BOM_LON BOM_TYPE BOM_WIND BOM_PRES BOM_TNUM BOM_CI BOM_RMW BOM_R34_NE BOM_R34_SE BOM_R34_SW BOM_R34_NW BOM_R50_NE BOM_R50_SE BOM_R50_SW BOM_R50_NW BOM_R64_NE BOM_R64_SE BOM_R64_SW BOM_R64_NW BOM_ROCI BOM_POCI BOM_EYE BOM_POS_METHOD BOM_PRES_METHOD NADI_LAT NADI_LON NADI_CAT NADI_WIND NADI_PRES WELLINGTON_LAT WELLINGTON_LON WELLINGTON_WIND WELLINGTON_PRES DS824_LAT DS824_LON DS824_STAGE DS824_WIND DS824_PRES TD9636_LAT TD9636_LON TD9636_STAGE TD9636_WIND TD9636_PRES TD9635_LAT TD9635_LON TD9635_WIND TD9635_PRES TD9635_ROCI NEUMANN_LAT NEUMANN_LON NEUMANN_CLASS NEUMANN_WIND NEUMANN_PRES MLC_LAT MLC_LON MLC_CLASS MLC_WIND MLC_PRES USA_GUST BOM_GUST BOM_GUST_PER REUNION_GUST REUNION_GUST_PER USA_SEAHGT USA_SEARAD_NE USA_SEARAD_SE USA_SEARAD_SW USA_SEARAD_NW STORM_SPEED STORM_DIR
1881233N17303 1881 33 NA NA NOT_NAMED 1881-08-21 00:00:00 TS 16.9333 -56.7667 60 hurdat_atl main 829 815 O____________O hurdat_atl AL051881 17.6000 -57.0000 TS 60 0 15.6000 -56.3000 TS 35 9 283
1881233N17303 1881 33 NA NA NOT_NAMED 1881-08-21 03:00:00 TS 17.0402 -57.2482 main 815 800 P____________P AL051881 17.6602 -57.4974 TS 60 0 15.8002 -56.7498 TS 35 9 282
1881233N17303 1881 33 NA NA NOT_NAMED 1881-08-21 06:00:00 TS 17.1333 -57.7333 60 hurdat_atl main 800 787 O____________O hurdat_atl AL051881 17.7000 -58.0000 TS 60 0 16.0000 -57.2000 TS 35 9 280
1881233N17303 1881 33 NA NA NOT_NAMED 1881-08-21 09:00:00 TS 17.2049 -58.2217 main 787 737 P____________P AL051881 17.7074 -58.5076 TS 60 0 16.1999 -57.6501 TS 35 9 278
1881233N17303 1881 33 NA NA NOT_NAMED 1881-08-21 12:00:00 TS 17.2667 -58.7000 60 hurdat_atl main 737 695 O____________O hurdat_atl AL051881 17.7000 -59.0000 TS 60 0 16.4000 -58.1000 TS 35 9 277
1881233N17303 1881 33 NA NA NOT_NAMED 1881-08-21 15:00:00 TS 17.3182 -59.1526 main 685 641 P____________P AL051881 17.6773 -59.4502 TS 60 0 16.5999 -58.5576 TS 35 9 279
1881233N17303 1881 33 NA NA NOT_NAMED 1881-08-21 18:00:00 TS 17.4000 -59.6000 60 hurdat_atl main 641 597 O____________O hurdat_atl AL051881 17.7000 -59.9000 TS 60 0 16.8000 -59.0000 TS 35 9 285
1881233N17303 1881 33 NA NA NOT_NAMED 1881-08-21 21:00:00 TS 17.5566 -60.0616 main 585 542 P____________P AL051881 17.8349 -60.3848 TS 60 0 16.9999 -59.4151 TS 40 10 291
1881233N17303 1881 33 NA NA NOT_NAMED 1881-08-22 00:00:00 TS 17.7333 -60.5333 60 hurdat_atl main 542 487 O____________O hurdat_atl AL051881 18.0000 -60.9000 TS 60 0 17.2000 -59.8000 TS 45 10 288
1881233N17303 1881 33 NA NA NOT_NAMED 1881-08-22 03:00:00 TS 17.8616 -61.0194 main 487 433 P____________P AL051881 18.0925 -61.4502 TS 60 0 17.3999 -60.1576 TS 45 10 286
1881233N17303 1881 33 NA CS NOT_NAMED 1881-08-22 06:00:00 TS 18.0000 -61.5000 60 hurdat_atl main 433 390 O____________O hurdat_atl AL051881 18.2000 -62.0000 TS 60 0 17.6000 -60.5000 TS 45 10 290
1881233N17303 1881 33 NA CS NOT_NAMED 1881-08-22 09:00:00 TS 18.1949 -61.9600 main 380 337 P____________P AL051881 18.3924 -62.5149 TS 60 0 17.7999 -60.8501 TS 45 9 295
1881233N17303 1881 33 NA CS NOT_NAMED 1881-08-22 12:00:00 TS 18.4000 -62.4000 60 hurdat_atl main 337 296 O____________O hurdat_atl AL051881 18.6000 -63.0000 TS 60 0 18.0000 -61.2000 TS 45 9 295
1881233N17303 1881 33 NA CS NOT_NAMED 1881-08-22 15:00:00 TS 18.5740 -62.8168 main 296 255 P____________P AL051881 18.7573 -63.4502 TS 60 0 18.2074 -61.5500 TS 45 9 293
1881233N17303 1881 33 NA CS NOT_NAMED 1881-08-22 18:00:00 TS 18.7333 -63.2333 60 hurdat_atl main 255 207 O____________O hurdat_atl AL051881 18.9000 -63.9000 TS 60 0 18.4000 -61.9000 TS 45 9 290
1881233N17303 1881 33 NA CS NOT_NAMED 1881-08-22 21:00:00 TS 18.8757 -63.6760 main 207 171 P____________P AL051881 19.0424 -64.3926 TS 60 0 18.5424 -62.2427 TS 50 9 289
1881233N17303 1881 33 NA NA NOT_NAMED 1881-08-23 00:00:00 TS 19.0333 -64.1333 60 hurdat_atl main 171 138 O____________O hurdat_atl AL051881 19.2000 -64.9000 TS 60 0 18.7000 -62.6000 TS 55 9 293
1881233N17303 1881 33 NA NA NOT_NAMED 1881-08-23 03:00:00 TS 19.2349 -64.5926 main 138 128 P____________P AL051881 19.3848 -65.3927 TS 60 0 18.9350 -62.9925 TS 55 10 296
1881233N17303 1881 33 NA NA NOT_NAMED 1881-08-23 06:00:00 TS 19.4667 -65.0667 60 hurdat_atl main 133 130 O____________O hurdat_atl AL051881 19.6000 -65.9000 TS 60 0 19.2000 -63.4000 TS 55 10 297
1881233N17303 1881 33 NA NA NOT_NAMED 1881-08-23 09:00:00 TS 19.6991 -65.5644 main 145 145 P____________P AL051881 19.8350 -66.4501 TS 60 0 19.4274 -63.7928 TS 55 11 298
1881233N17303 1881 33 NA NA NOT_NAMED 1881-08-23 12:00:00 TS 19.9667 -66.0667 60 hurdat_atl main 178 178 O____________O hurdat_atl AL051881 20.1000 -67.0000 TS 60 0 19.7000 -64.2000 TS 55 11 302
1881233N17303 1881 33 NA NA NOT_NAMED 1881-08-23 15:00:00 TS 20.2748 -66.5478 main 212 212 P____________P AL051881 20.3697 -67.5005 TS 60 0 20.0849 -64.6424 TS 55 11 306
1881233N17303 1881 33 NA NA NOT_NAMED 1881-08-23 18:00:00 TS 20.6333 -67.0333 60 hurdat_atl main 246 246 O____________O hurdat_atl AL051881 20.7000 -68.0000 TS 60 0 20.5000 -65.1000 TS 55 12 309
1881233N17303 1881 33 NA NA NOT_NAMED 1881-08-23 21:00:00 TS 21.0500 -67.5574 main 268 260 P____________P AL051881 21.1500 -68.5572 TS 65 1 20.8499 -65.5578 TS 57 13 311
1881233N17303 1881 33 NA NA NOT_NAMED 1881-08-24 00:00:00 TS 21.4667 -68.0667 70 hurdat_atl main 275 271 O____________O hurdat_atl AL051881 21.6000 -69.1000 HU 70 1 21.2000 -66.0000 TS 60 12 310
1881233N17303 1881 33 NA NA NOT_NAMED 1881-08-24 03:00:00 TS 21.8048 -68.5155 main 291 285 P____________P AL051881 21.9073 -69.5731 HU 70 1 21.5998 -66.4002 TS 62 10 310
1881233N17303 1881 33 NA NA NOT_NAMED 1881-08-24 06:00:00 TS 22.1333 -68.9333 70 hurdat_atl main 302 302 O____________O hurdat_atl AL051881 22.2000 -70.0000 HU 70 1 22.0000 -66.8000 HU 65 10 313
1881233N17303 1881 33 NA NA NOT_NAMED 1881-08-24 09:00:00 TS 22.5114 -69.3328 main 330 326 P____________P AL051881 22.5922 -70.3853 HU 70 1 22.3498 -67.2279 HU 65 11 315
1881233N17303 1881 33 NA NA NOT_NAMED 1881-08-24 12:00:00 TS 22.9000 -69.7667 70 hurdat_atl main 356 356 O____________O hurdat_atl AL051881 23.0000 -70.8000 HU 70 1 22.7000 -67.7000 HU 65 12 310
1881233N17303 1881 33 NA NA NOT_NAMED 1881-08-24 15:00:00 TS 23.2693 -70.3092 main 363 348 P____________P AL051881 23.3577 -71.3426 HU 70 1 23.0925 -68.2426 HU 65 13 306
1881233N17303 1881 33 NA NA NOT_NAMED 1881-08-24 18:00:00 TS 23.6333 -70.8667 70 hurdat_atl main 344 344 O____________O hurdat_atl AL051881 23.7000 -71.9000 HU 70 1 23.5000 -68.8000 HU 65 12 308
1881233N17303 1881 33 NA NA NOT_NAMED 1881-08-24 21:00:00 TS 24.0098 -71.3486 main 358 353 P____________P AL051881 24.0648 -72.3727 HU 70 1 23.8997 -69.3004 HU 67 11 311
1881233N17303 1881 33 NA NA NOT_NAMED 1881-08-25 00:00:00 TS 24.3667 -71.8000 70 hurdat_atl main 378 375 O____________O hurdat_atl AL051881 24.4000 -72.8000 HU 70 1 24.3000 -69.8000 HU 70 11 309
1881233N17303 1881 33 NA NA NOT_NAMED 1881-08-25 03:00:00 TS 24.6715 -72.2454 main 399 397 P____________P AL051881 24.6572 -73.1930 HU 70 1 24.7000 -70.3502 HU 70 10 306
1881233N17303 1881 33 NA NA NOT_NAMED 1881-08-25 06:00:00 TS 24.9667 -72.7000 70 hurdat_atl main 425 425 O____________O hurdat_atl AL051881 24.9000 -73.6000 HU 70 1 25.1000 -70.9000 HU 70 11 306
1881233N17303 1881 33 NA NA NOT_NAMED 1881-08-25 09:00:00 TS 25.3050 -73.2050 main 458 420 P____________P AL051881 25.2001 -74.0999 HU 75 1 25.5148 -71.4151 HU 72 11 306
1881233N17303 1881 33 NA NA NOT_NAMED 1881-08-25 12:00:00 TS 25.6333 -73.7000 80 hurdat_atl main 420 394 O____________O hurdat_atl AL051881 25.5000 -74.6000 HU 80 1 25.9000 -71.9000 HU 75 10 306
1881233N17303 1881 33 NA NA NOT_NAMED 1881-08-25 15:00:00 TS 25.8997 -74.1173 main 394 366 P____________P AL051881 25.7421 -75.0006 HU 80 1 26.2147 -72.3505 HU 75 9 305
1881233N17303 1881 33 NA NA NOT_NAMED 1881-08-25 18:00:00 TS 26.1667 -74.5333 80 hurdat_atl main 370 338 O____________O hurdat_atl AL051881 26.0000 -75.4000 HU 80 1 26.5000 -72.8000 HU 75 10 306
1881233N17303 1881 33 NA NA NOT_NAMED 1881-08-25 21:00:00 TS 26.4900 -75.0283 main 338 313 P____________P AL051881 26.3351 -75.8924 HU 80 1 26.8000 -73.3001 HU 77 11 307
1881233N17303 1881 33 NA NA NOT_NAMED 1881-08-26 00:00:00 TS 26.8333 -75.5333 80 hurdat_atl main 313 299 O____________O hurdat_atl AL051881 26.7000 -76.4000 HU 80 1 27.1000 -73.8000 HU 80 11 308
1881233N17303 1881 33 NA NA NOT_NAMED 1881-08-26 03:00:00 TS 27.1615 -75.9937 main 307 301 P____________P AL051881 27.0424 -76.8654 HU 80 1 27.3997 -74.2504 HU 80 10 310
1881233N17303 1881 33 NA NA NOT_NAMED 1881-08-26 06:00:00 TS 27.5000 -76.4333 80 hurdat_atl main 311 306 O____________O hurdat_atl AL051881 27.4000 -77.3000 HU 80 1 27.7000 -74.7000 HU 80 11 312
1881233N17303 1881 33 NA NA NOT_NAMED 1881-08-26 09:00:00 TS 27.8817 -76.8890 main 329 306 P____________P AL051881 27.8225 -77.7298 HU 80 1 28.0000 -75.2076 HU 82 11 314
1881233N17303 1881 33 NA NA NOT_NAMED 1881-08-26 12:00:00 TS 28.2333 -77.3000 80 hurdat_atl main 306 283 O____________O hurdat_atl AL051881 28.2000 -78.1000 HU 80 1 28.3000 -75.7000 HU 85 9 312
1881233N17303 1881 33 NA NA NOT_NAMED 1881-08-26 15:00:00 TS 28.4715 -77.6255 main 283 254 P____________P AL051881 28.4073 -78.3806 HU 85 2 28.5997 -76.1153 HU 85 7 311
1881233N17303 1881 33 NA NA NOT_NAMED 1881-08-26 18:00:00 TS 28.7000 -77.9000 90 hurdat_atl main 254 230 O____________O hurdat_atl AL051881 28.6000 -78.6000 HU 90 2 28.9000 -76.5000 HU 85 7 319
1881233N17303 1881 33 NA NA NOT_NAMED 1881-08-26 21:00:00 TS 29.0233 -78.1767 main 230 222 P____________P AL051881 28.9350 -78.8149 HU 90 2 29.1999 -76.9002 HU 85 8 325
1881233N17303 1881 33 NA NA NOT_NAMED 1881-08-27 00:00:00 TS 29.3667 -78.4333 90 hurdat_atl main 227 213 O____________O hurdat_atl AL051881 29.3000 -79.0000 HU 90 2 29.5000 -77.3000 HU 85 8 326
1881233N17303 1881 33 NA NA NOT_NAMED 1881-08-27 03:00:00 TS 29.6641 -78.6744 main 220 212 P____________P AL051881 29.5925 -79.1578 HU 90 2 29.8074 -77.7076 HU 87 7 326
1881233N17303 1881 33 NA NA NOT_NAMED 1881-08-27 06:00:00 TS 29.9667 -78.9000 90 hurdat_atl main 217 212 O____________O hurdat_atl AL051881 29.9000 -79.3000 HU 90 2 30.1000 -78.1000 HU 90 8 330
1881233N17303 1881 33 NA NA NOT_NAMED 1881-08-27 09:00:00 TS 30.3140 -79.1069 main 216 200 P____________P AL051881 30.2999 -79.4351 HU 90 2 30.3423 -78.4506 HU 90 8 332
1881233N17303 1881 33 NA NA NOT_NAMED 1881-08-27 12:00:00 TS 30.6667 -79.3333 90 hurdat_atl main 200 158 O____________O hurdat_atl AL051881 30.7000 -79.6000 HU 90 2 30.6000 -78.8000 HU 90 8 328
1881233N17303 1881 33 NA NA NOT_NAMED 1881-08-27 15:00:00 TS 31.0032 -79.6059 main 158 115 P____________P AL051881 31.0374 -79.8126 HU 90 2 30.9349 -79.1926 HU 90 8 321
1881233N17303 1881 33 NA NA NOT_NAMED 1881-08-27 18:00:00 TS 31.3000 -79.9333 90 hurdat_atl main 115 72 O____________O hurdat_atl AL051881 31.3000 -80.1000 HU 90 2 31.3000 -79.6000 HU 90 8 311
1881233N17303 1881 33 NA NA NOT_NAMED 1881-08-27 21:00:00 TS 31.5321 -80.3262 main 72 29 P____________P AL051881 31.4696 -80.5040 HU 90 2 31.6570 -79.9705 HU 90 8 302
1881233N17303 1881 33 NA NA NOT_NAMED 1881-08-28 00:00:00 TS 31.7333 -80.7333 90 970 hurdat_atl main 29 0 O____________O hurdat_atl AL051881 31.6000 -80.9000 HU 90 970 2 32.0000 -80.4000 HU 90 970 8 301
1881233N17303 1881 33 NA NA NOT_NAMED 1881-08-28 02:00:00 TS 31.8693 -80.9859 90 970 hurdat_atl main 0 0 O____________P hurdat_atl AL051881 31.7000 -81.1000 L HU 90 970 2 32.2078 -80.7578 HU 83 8 299
1881233N17303 1881 33 NA NA NOT_NAMED 1881-08-28 03:00:00 TS 31.9382 -81.1595 main 0 0 P____________P AL051881 31.7537 -81.2615 HU 85 2 32.3074 -80.9554 HU 80 11 291
1881233N17303 1881 33 NA NA NOT_NAMED 1881-08-28 06:00:00 TS 32.1333 -81.8000 70 hurdat_atl main 0 0 O____________O hurdat_atl AL051881 31.9000 -81.9000 HU 70 1 32.6000 -81.6000 HU 70 11 289
1881233N17303 1881 33 NA NA NOT_NAMED 1881-08-28 09:00:00 TS 32.2828 -82.3723 main 0 0 P____________P AL051881 31.9747 -82.4381 HU 60 0 32.8990 -82.2408 HU 60 10 285
1881233N17303 1881 33 NA NA NOT_NAMED 1881-08-28 12:00:00 TS 32.4000 -83.0000 50 hurdat_atl main 0 0 O____________O hurdat_atl AL051881 32.0000 -83.0000 TS 50 0 33.2000 -83.0000 TS 50 12 280
1881233N17303 1881 33 NA NA NOT_NAMED 1881-08-28 15:00:00 TS 32.4792 -83.7336 main 0 0 P____________P AL051881 31.9693 -83.6413 TS 50 0 33.4992 -83.9182 TS 47 14 278
1881233N17303 1881 33 NA NA NOT_NAMED 1881-08-28 18:00:00 TS 32.6000 -84.6000 50 hurdat_atl main 0 0 O____________O hurdat_atl AL051881 32.0000 -84.4000 TS 50 0 33.8000 -85.0000 TS 45 16 282
1881233N17303 1881 33 NA NA NOT_NAMED 1881-08-28 21:00:00 TS 32.8323 -85.6422 main 0 0 P____________P AL051881 32.1985 -85.3568 TS 45 0 34.0998 -86.2131 TS 40 18 287
1881233N17303 1881 33 NA NA NOT_NAMED 1881-08-29 00:00:00 TS 33.1333 -86.7000 40 hurdat_atl main 0 0 O____________O hurdat_atl AL051881 32.5000 -86.3000 TS 40 0 34.4000 -87.5000 TS 35 18 290
1881233N17303 1881 33 NA NA NOT_NAMED 1881-08-29 03:00:00 TS 33.4338 -87.6134 main 0 0 P____________P AL051881 32.8262 -86.9883 TS 40 0 34.6489 -88.8634 TS 32 16 295
1881233N17303 1881 33 NA NA NOT_NAMED 1881-08-29 06:00:00 TS 33.8000 -88.4000 40 hurdat_atl main 0 0 O____________O hurdat_atl AL051881 33.2000 -87.6000 TS 40 0 35.0000 -90.0000 TD 30 1002 15 305
1881233N17303 1881 33 NA NA NOT_NAMED 1881-08-29 09:00:00 TS 34.2674 -89.0664 main 0 0 P____________P AL051881 33.5997 -88.2927 TS 40 0 35.6026 -90.6138 TD 30 16 314
1881233N17303 1881 33 NA NA NOT_NAMED 1881-08-29 12:00:00 TS 34.9200 -89.8000 40 1002 hurdat_atl main 0 0 O____________O hurdat_atl AL051881 34.0000 -89.0000 TS 40 1002 0 36.3000 -91.0000 TD 30 19 317
1881233N17303 1881 33 NA NA NOT_NAMED 1881-08-29 15:00:00 TS 35.6240 -90.6015 main 0 0 P____________P AL051881 34.3632 -89.7016 TS 35 0 36.8848 -91.5014 TD 30 21 321
1881233N17303 1881 33 NA NA NOT_NAMED 1881-08-29 18:00:00 TS 36.5667 -91.4667 30 hurdat_atl main 0 0 O____________O hurdat_atl AL051881 34.7000 -90.4000 TD 30 -1 37.5000 -92.0000 TD 30 30 330
1881233N17303 1881 33 NA NA NOT_NAMED 1881-08-29 21:00:00 TS 38.2273 -92.5006 main 0 0 _____________P AL051881 TD -1 38.2273 -92.5006 TD 27 27 334
1881233N17303 1881 33 NA NA NOT_NAMED 1881-08-30 00:00:00 TS 39.0000 -93.0000 main 0 0 _____________O 39.0000 -93.0000 TD 25 17 333
1881233N17303 1881 33 NA NA NOT_NAMED 1881-08-30 03:00:00 TS 39.7579 -93.4981 main 0 0 _____________P 39.7579 -93.4981 TD 25 17 333
1881233N17303 1881 33 NA NA NOT_NAMED 1881-08-30 06:00:00 TS 40.5000 -94.0000 main 0 _____________O 40.5000 -94.0000 TD 25 1008 17 333

About IBTrACS Database

This database is a web-friendly format of International Best Track Archive for Climate Stewardship (IBTrACS), a global best track data archive curated by NOAA dating back to 1842.

Updated: 2021-11-26